GLO1295 SBEG-SBRB
Flight info
| Callsign | GLO1295 |
|---|---|
| Flight time | 1h 47m |
| Altitude | 36000 |
| Route | UKBEL UZ62 RCO DCT |
| Aircraft | B738/M-SDFGIKLORWXY/LB1 |
Departure
| Time | 2026-04-21 01:33 |
|---|---|
| Airport | Eduardo Gomes International Airport (SBEG) |
Arrival
| Time | 2026-04-21 03:20 |
|---|---|
| Airport | Rio Branco-Plácido de Castro International Airport (SBRB) |
| Time | Latitude | Longitude | Altitude | Speed | Heading |
|---|---|---|---|---|---|
| 2026-04-21 00:53 | -3.03272 | -60.04581 | 267 ft | 0 kts | 357° |
| 2026-04-21 01:23 | -3.03277 | -60.04581 | 267 ft | 4 kts | 356° |
| 2026-04-21 01:23 | -3.03304 | -60.04578 | 267 ft | 4 kts | 348° |
| 2026-04-21 01:24 | -3.03330 | -60.04571 | 267 ft | 4 kts | 334° |
| 2026-04-21 01:24 | -3.03345 | -60.04562 | 267 ft | 4 kts | 311° |
| 2026-04-21 01:24 | -3.03353 | -60.04545 | 267 ft | 1 kts | 265° |
| 2026-04-21 01:24 | -3.03353 | -60.04541 | 267 ft | 0 kts | 265° |
| 2026-04-21 01:26 | -3.03353 | -60.04545 | 267 ft | 2 kts | 265° |
| 2026-04-21 01:26 | -3.03355 | -60.04576 | 267 ft | 7 kts | 268° |
| 2026-04-21 01:27 | -3.03355 | -60.04639 | 267 ft | 10 kts | 270° |
| 2026-04-21 01:27 | -3.03354 | -60.04703 | 267 ft | 9 kts | 264° |
| 2026-04-21 01:27 | -3.03370 | -60.04765 | 267 ft | 9 kts | 247° |
| 2026-04-21 01:27 | -3.03403 | -60.04819 | 267 ft | 10 kts | 229° |
| 2026-04-21 01:28 | -3.03460 | -60.04870 | 267 ft | 11 kts | 216° |
| 2026-04-21 01:28 | -3.03522 | -60.04919 | 267 ft | 11 kts | 226° |
| 2026-04-21 01:28 | -3.03568 | -60.04980 | 267 ft | 11 kts | 242° |
| 2026-04-21 01:28 | -3.03595 | -60.05057 | 267 ft | 13 kts | 256° |
| 2026-04-21 01:29 | -3.03621 | -60.05154 | 267 ft | 16 kts | 255° |
| 2026-04-21 01:29 | -3.03651 | -60.05265 | 267 ft | 16 kts | 255° |
| 2026-04-21 01:29 | -3.03676 | -60.05374 | 267 ft | 16 kts | 259° |
| 2026-04-21 01:29 | -3.03689 | -60.05481 | 267 ft | 16 kts | 266° |
| 2026-04-21 01:30 | -3.03691 | -60.05609 | 267 ft | 20 kts | 270° |
| 2026-04-21 01:30 | -3.03691 | -60.05747 | 267 ft | 20 kts | 271° |
| 2026-04-21 01:30 | -3.03691 | -60.05878 | 267 ft | 19 kts | 270° |
| 2026-04-21 01:30 | -3.03691 | -60.06008 | 267 ft | 18 kts | 270° |
| 2026-04-21 01:31 | -3.03695 | -60.06109 | 267 ft | 12 kts | 255° |
| 2026-04-21 01:31 | -3.03753 | -60.06168 | 267 ft | 12 kts | 196° |
| 2026-04-21 01:31 | -3.03834 | -60.06173 | 268 ft | 10 kts | 179° |
| 2026-04-21 01:31 | -3.03856 | -60.06151 | 268 ft | 4 kts | 94° |
| 2026-04-21 01:32 | -3.03856 | -60.06106 | 269 ft | 15 kts | 90° |
| 2026-04-21 01:32 | -3.03856 | -60.05746 | 267 ft | 88 kts | 90° |
| 2026-04-21 01:32 | -3.03858 | -60.04907 | 268 ft | 151 kts | 90° |
| 2026-04-21 01:32 | -3.03859 | -60.03711 | 518 ft | 182 kts | 90° |
| 2026-04-21 01:33 | -3.03856 | -60.02486 | 1524 ft | 171 kts | 89° |
| 2026-04-21 01:33 | -3.03859 | -60.01277 | 2237 ft | 178 kts | 92° |
| 2026-04-21 01:33 | -3.04333 | -60.00047 | 2496 ft | 209 kts | 135° |
| 2026-04-21 01:33 | -3.05708 | -59.99422 | 2700 ft | 235 kts | 178° |
| 2026-04-21 01:34 | -3.07349 | -59.99830 | 2915 ft | 259 kts | 210° |
| 2026-04-21 01:34 | -3.08631 | -60.01142 | 3402 ft | 272 kts | 240° |
| 2026-04-21 01:34 | -3.09489 | -60.02811 | 4217 ft | 274 kts | 243° |
| 2026-04-21 01:34 | -3.10360 | -60.04516 | 5022 ft | 277 kts | 242° |
| 2026-04-21 01:35 | -3.11271 | -60.06231 | 5773 ft | 281 kts | 240° |
| 2026-04-21 01:35 | -3.12239 | -60.07980 | 6523 ft | 285 kts | 240° |
| 2026-04-21 01:35 | -3.13209 | -60.09694 | 7248 ft | 287 kts | 239° |
| 2026-04-21 01:35 | -3.14207 | -60.11440 | 8007 ft | 289 kts | 239° |
| 2026-04-21 01:36 | -3.15206 | -60.13200 | 8745 ft | 292 kts | 242° |
| 2026-04-21 01:36 | -3.15758 | -60.15175 | 9443 ft | 297 kts | 264° |
| 2026-04-21 01:36 | -3.15901 | -60.17219 | 10159 ft | 299 kts | 265° |
| 2026-04-21 01:36 | -3.16045 | -60.19365 | 10436 ft | 319 kts | 265° |
| 2026-04-21 01:37 | -3.16206 | -60.21655 | 10740 ft | 335 kts | 265° |
| 2026-04-21 01:37 | -3.16381 | -60.23999 | 11322 ft | 340 kts | 265° |
| 2026-04-21 01:37 | -3.16563 | -60.26356 | 12036 ft | 340 kts | 264° |
| 2026-04-21 01:37 | -3.16747 | -60.28701 | 12710 ft | 342 kts | 264° |
| 2026-04-21 01:38 | -3.16935 | -60.31080 | 13376 ft | 345 kts | 264° |
| 2026-04-21 01:38 | -3.17126 | -60.33494 | 13994 ft | 348 kts | 264° |
| 2026-04-21 01:38 | -3.17317 | -60.35917 | 14526 ft | 352 kts | 264° |
| 2026-04-21 01:38 | -3.17510 | -60.38374 | 15048 ft | 356 kts | 264° |
| 2026-04-21 01:39 | -3.17705 | -60.40857 | 15577 ft | 360 kts | 264° |
| 2026-04-21 01:39 | -3.17903 | -60.43381 | 16112 ft | 364 kts | 264° |
| 2026-04-21 01:39 | -3.18104 | -60.45932 | 16640 ft | 368 kts | 264° |
| 2026-04-21 01:39 | -3.18303 | -60.48464 | 17163 ft | 372 kts | 264° |
| 2026-04-21 01:40 | -3.18558 | -60.51060 | 17667 ft | 375 kts | 257° |
| 2026-04-21 01:40 | -3.19513 | -60.53486 | 18140 ft | 377 kts | 236° |
| 2026-04-21 01:40 | -3.21140 | -60.55550 | 18621 ft | 379 kts | 228° |
| 2026-04-21 01:40 | -3.22890 | -60.57543 | 19070 ft | 382 kts | 227° |
| 2026-04-21 01:41 | -3.24671 | -60.59531 | 19505 ft | 385 kts | 227° |
| 2026-04-21 01:41 | -3.26469 | -60.61537 | 19944 ft | 388 kts | 227° |
| 2026-04-21 01:41 | -3.28272 | -60.63562 | 20389 ft | 391 kts | 227° |
| 2026-04-21 01:41 | -3.30066 | -60.65589 | 20827 ft | 394 kts | 227° |
| 2026-04-21 01:42 | -3.31884 | -60.67655 | 21256 ft | 397 kts | 228° |
| 2026-04-21 01:42 | -3.33720 | -60.69748 | 21684 ft | 400 kts | 228° |
| 2026-04-21 01:42 | -3.35563 | -60.71854 | 22048 ft | 405 kts | 228° |
| 2026-04-21 01:42 | -3.37429 | -60.73988 | 22460 ft | 408 kts | 228° |
| 2026-04-21 01:43 | -3.39304 | -60.76134 | 22887 ft | 410 kts | 228° |
| 2026-04-21 01:43 | -3.41183 | -60.78286 | 23311 ft | 412 kts | 228° |
| 2026-04-21 01:43 | -3.43082 | -60.80459 | 23669 ft | 415 kts | 228° |
| 2026-04-21 01:43 | -3.44970 | -60.82621 | 23980 ft | 418 kts | 228° |
| 2026-04-21 01:44 | -3.46896 | -60.84826 | 24315 ft | 420 kts | 228° |
| 2026-04-21 01:44 | -3.48833 | -60.87044 | 24641 ft | 423 kts | 228° |
| 2026-04-21 01:44 | -3.50779 | -60.89272 | 24962 ft | 425 kts | 228° |
| 2026-04-21 01:44 | -3.52704 | -60.91476 | 25275 ft | 428 kts | 228° |
| 2026-04-21 01:45 | -3.54669 | -60.93726 | 25586 ft | 430 kts | 227° |
| 2026-04-21 01:45 | -3.56646 | -60.95990 | 25895 ft | 433 kts | 227° |
| 2026-04-21 01:45 | -3.58638 | -60.98271 | 26202 ft | 435 kts | 227° |
| 2026-04-21 01:45 | -3.60575 | -61.00490 | 26499 ft | 438 kts | 227° |
| 2026-04-21 01:46 | -3.62583 | -61.02790 | 26795 ft | 440 kts | 227° |
| 2026-04-21 01:46 | -3.64604 | -61.05104 | 27081 ft | 443 kts | 227° |
| 2026-04-21 01:46 | -3.66636 | -61.07433 | 27314 ft | 447 kts | 227° |
| 2026-04-21 01:46 | -3.68693 | -61.09789 | 27597 ft | 449 kts | 227° |
| 2026-04-21 01:47 | -3.70730 | -61.12123 | 27897 ft | 451 kts | 227° |
| 2026-04-21 01:47 | -3.72800 | -61.14495 | 28184 ft | 453 kts | 227° |
| 2026-04-21 01:47 | -3.74881 | -61.16880 | 28449 ft | 455 kts | 227° |
| 2026-04-21 01:47 | -3.76980 | -61.19286 | 28713 ft | 458 kts | 227° |
| 2026-04-21 01:48 | -3.79087 | -61.21701 | 28970 ft | 460 kts | 227° |
| 2026-04-21 01:48 | -3.81171 | -61.24090 | 29225 ft | 463 kts | 227° |
| 2026-04-21 01:48 | -3.83298 | -61.26529 | 29479 ft | 465 kts | 227° |
| 2026-04-21 01:48 | -3.85427 | -61.28970 | 29725 ft | 467 kts | 227° |
| 2026-04-21 01:49 | -3.87567 | -61.31424 | 29972 ft | 469 kts | 227° |
| 2026-04-21 01:49 | -3.89717 | -61.33890 | 30185 ft | 471 kts | 227° |
| 2026-04-21 01:49 | -3.91911 | -61.36342 | 30412 ft | 472 kts | 224° |
| 2026-04-21 01:49 | -3.94255 | -61.38632 | 30656 ft | 471 kts | 220° |
| 2026-04-21 01:50 | -3.96696 | -61.40835 | 30901 ft | 471 kts | 219° |
| 2026-04-21 01:50 | -3.99168 | -61.43005 | 31133 ft | 472 kts | 219° |
| 2026-04-21 01:50 | -4.01624 | -61.45158 | 31352 ft | 474 kts | 219° |
| 2026-04-21 01:50 | -4.04096 | -61.47347 | 31585 ft | 474 kts | 220° |
| 2026-04-21 01:51 | -4.06525 | -61.49525 | 31805 ft | 475 kts | 220° |
| 2026-04-21 01:51 | -4.08993 | -61.51757 | 32001 ft | 477 kts | 220° |
| 2026-04-21 01:51 | -4.11456 | -61.53999 | 32190 ft | 479 kts | 220° |
| 2026-04-21 01:51 | -4.13919 | -61.56248 | 32378 ft | 480 kts | 220° |
| 2026-04-21 01:52 | -4.16390 | -61.58507 | 32601 ft | 480 kts | 220° |
| 2026-04-21 01:52 | -4.21314 | -61.63009 | 33216 ft | 477 kts | 220° |
| 2026-04-21 01:52 | -4.23766 | -61.65249 | 33513 ft | 476 kts | 220° |
| 2026-04-21 01:53 | -4.26210 | -61.67482 | 33775 ft | 476 kts | 220° |
| 2026-04-21 01:53 | -4.28625 | -61.69687 | 34016 ft | 475 kts | 220° |
| 2026-04-21 01:53 | -4.31070 | -61.71920 | 34256 ft | 474 kts | 220° |
| 2026-04-21 01:53 | -4.33507 | -61.74146 | 34503 ft | 473 kts | 220° |
| 2026-04-21 01:54 | -4.35947 | -61.76374 | 34738 ft | 472 kts | 220° |
| 2026-04-21 01:54 | -4.38376 | -61.78593 | 34955 ft | 472 kts | 220° |
| 2026-04-21 01:54 | -4.40801 | -61.80808 | 35157 ft | 472 kts | 220° |
| 2026-04-21 01:54 | -4.43235 | -61.83032 | 35379 ft | 471 kts | 220° |
| 2026-04-21 01:55 | -4.45621 | -61.85212 | 35612 ft | 470 kts | 220° |
| 2026-04-21 01:55 | -4.48032 | -61.87416 | 35846 ft | 469 kts | 220° |
| 2026-04-21 01:55 | -4.50444 | -61.89620 | 35944 ft | 471 kts | 220° |
| 2026-04-21 01:56 | -4.55296 | -61.94054 | 35938 ft | 471 kts | 220° |
| 2026-04-21 01:56 | -4.60117 | -61.98462 | 35935 ft | 467 kts | 220° |
| 2026-04-21 01:57 | -4.64825 | -62.02768 | 35942 ft | 464 kts | 220° |
| 2026-04-21 01:57 | -4.69556 | -62.07095 | 35945 ft | 462 kts | 220° |
| 2026-04-21 01:58 | -4.74307 | -62.11440 | 35944 ft | 462 kts | 220° |
| 2026-04-21 01:58 | -4.79056 | -62.15786 | 35949 ft | 463 kts | 220° |
| 2026-04-21 01:59 | -4.83825 | -62.20150 | 35954 ft | 465 kts | 220° |
| 2026-04-21 01:59 | -4.88620 | -62.24539 | 35943 ft | 468 kts | 220° |
| 2026-04-21 02:00 | -4.93445 | -62.28955 | 35956 ft | 470 kts | 220° |
| 2026-04-21 02:00 | -4.98261 | -62.33366 | 35955 ft | 473 kts | 220° |
| 2026-04-21 02:01 | -5.03124 | -62.37821 | 35955 ft | 475 kts | 220° |
| 2026-04-21 02:01 | -5.08010 | -62.42298 | 35943 ft | 477 kts | 220° |
| 2026-04-21 02:02 | -5.12907 | -62.46824 | 35952 ft | 479 kts | 223° |
| 2026-04-21 02:02 | -5.17371 | -62.51745 | 35956 ft | 481 kts | 227° |
| 2026-04-21 02:03 | -5.21702 | -62.56882 | 35953 ft | 481 kts | 228° |
| 2026-04-21 02:03 | -5.26069 | -62.61980 | 35948 ft | 481 kts | 227° |
| 2026-04-21 02:04 | -5.30469 | -62.67025 | 35949 ft | 480 kts | 227° |
| 2026-04-21 02:04 | -5.34872 | -62.72046 | 35949 ft | 478 kts | 227° |
| 2026-04-21 02:05 | -5.39265 | -62.77058 | 35952 ft | 477 kts | 227° |
| 2026-04-21 02:05 | -5.43617 | -62.82029 | 35952 ft | 476 kts | 227° |
| 2026-04-21 02:06 | -5.47988 | -62.87025 | 35953 ft | 475 kts | 227° |
| 2026-04-21 02:06 | -5.52353 | -62.92015 | 35950 ft | 474 kts | 227° |
| 2026-04-21 02:07 | -5.56705 | -62.96992 | 35954 ft | 474 kts | 227° |
| 2026-04-21 02:07 | -5.60977 | -63.01877 | 35953 ft | 474 kts | 227° |
| 2026-04-21 02:08 | -5.65295 | -63.06818 | 35955 ft | 474 kts | 227° |
| 2026-04-21 02:08 | -5.69647 | -63.11800 | 35958 ft | 474 kts | 227° |
| 2026-04-21 02:09 | -5.74005 | -63.16783 | 35956 ft | 474 kts | 226° |
| 2026-04-21 02:09 | -5.78438 | -63.21697 | 35955 ft | 475 kts | 226° |
| 2026-04-21 02:10 | -5.82906 | -63.26586 | 35957 ft | 475 kts | 226° |
| 2026-04-21 02:10 | -5.86614 | -63.30658 | 35955 ft | 475 kts | 226° |
| 2026-04-21 02:11 | -5.91829 | -63.36409 | 35956 ft | 476 kts | 226° |
| 2026-04-21 02:11 | -5.95539 | -63.40503 | 35956 ft | 476 kts | 226° |
| 2026-04-21 02:12 | -5.99998 | -63.45425 | 35960 ft | 476 kts | 226° |
| 2026-04-21 02:12 | -6.04409 | -63.50295 | 35957 ft | 475 kts | 226° |
| 2026-04-21 02:13 | -6.08850 | -63.55214 | 35958 ft | 475 kts | 226° |
| 2026-04-21 02:13 | -6.13235 | -63.60175 | 35953 ft | 475 kts | 227° |
| 2026-04-21 02:14 | -6.17612 | -63.65149 | 35962 ft | 474 kts | 227° |
| 2026-04-21 02:14 | -6.21992 | -63.70112 | 35961 ft | 473 kts | 227° |
| 2026-04-21 02:15 | -6.26336 | -63.75031 | 35959 ft | 473 kts | 227° |
| 2026-04-21 02:15 | -6.30705 | -63.79980 | 35961 ft | 472 kts | 227° |
| 2026-04-21 02:16 | -6.35066 | -63.84919 | 35964 ft | 472 kts | 227° |
| 2026-04-21 02:16 | -6.39427 | -63.89860 | 35961 ft | 472 kts | 227° |
| 2026-04-21 02:17 | -6.43789 | -63.94805 | 35965 ft | 472 kts | 227° |
| 2026-04-21 02:17 | -6.48152 | -63.99754 | 35964 ft | 472 kts | 227° |
| 2026-04-21 02:18 | -6.52396 | -64.04573 | 35961 ft | 473 kts | 227° |
| 2026-04-21 02:18 | -6.56759 | -64.09533 | 35967 ft | 473 kts | 227° |
| 2026-04-21 02:19 | -6.61131 | -64.14503 | 35965 ft | 474 kts | 227° |
| 2026-04-21 02:19 | -6.65502 | -64.19475 | 35964 ft | 474 kts | 227° |
| 2026-04-21 02:20 | -6.69877 | -64.24452 | 35966 ft | 475 kts | 227° |
| 2026-04-21 02:20 | -6.74259 | -64.29434 | 35963 ft | 475 kts | 227° |
| 2026-04-21 02:21 | -6.78616 | -64.34382 | 35965 ft | 475 kts | 227° |
| 2026-04-21 02:21 | -6.82996 | -64.39359 | 35971 ft | 475 kts | 227° |
| 2026-04-21 02:22 | -6.87381 | -64.44345 | 35963 ft | 475 kts | 227° |
| 2026-04-21 02:22 | -6.91770 | -64.49338 | 35967 ft | 475 kts | 227° |
| 2026-04-21 02:23 | -6.96152 | -64.54325 | 35968 ft | 475 kts | 227° |
| 2026-04-21 02:23 | -7.00527 | -64.59305 | 35968 ft | 476 kts | 227° |
| 2026-04-21 02:24 | -7.04912 | -64.64298 | 35967 ft | 476 kts | 227° |
| 2026-04-21 02:24 | -7.09266 | -64.69257 | 35968 ft | 476 kts | 227° |
| 2026-04-21 02:25 | -7.13656 | -64.74260 | 35970 ft | 476 kts | 227° |
| 2026-04-21 02:25 | -7.18042 | -64.79258 | 35970 ft | 476 kts | 227° |
| 2026-04-21 02:26 | -7.22425 | -64.84255 | 35971 ft | 476 kts | 227° |
| 2026-04-21 02:26 | -7.26814 | -64.89260 | 35970 ft | 476 kts | 227° |
| 2026-04-21 02:27 | -7.31197 | -64.94261 | 35967 ft | 476 kts | 227° |
| 2026-04-21 02:27 | -7.35591 | -64.99275 | 35964 ft | 476 kts | 227° |
| 2026-04-21 02:28 | -7.39907 | -65.04202 | 35970 ft | 476 kts | 227° |
| 2026-04-21 02:28 | -7.44265 | -65.09179 | 35970 ft | 477 kts | 227° |
| 2026-04-21 02:29 | -7.48654 | -65.14194 | 35970 ft | 477 kts | 227° |
| 2026-04-21 02:29 | -7.53048 | -65.19216 | 35967 ft | 477 kts | 227° |
| 2026-04-21 02:30 | -7.57413 | -65.24258 | 35971 ft | 477 kts | 228° |
| 2026-04-21 02:30 | -7.61655 | -65.29441 | 35976 ft | 478 kts | 230° |
| 2026-04-21 02:31 | -7.65825 | -65.34607 | 35970 ft | 478 kts | 230° |
| 2026-04-21 02:31 | -7.70042 | -65.39804 | 35969 ft | 478 kts | 229° |
| 2026-04-21 02:32 | -7.74267 | -65.44986 | 35971 ft | 478 kts | 229° |
| 2026-04-21 02:32 | -7.78496 | -65.50167 | 35972 ft | 478 kts | 229° |
| 2026-04-21 02:33 | -7.82729 | -65.55354 | 35973 ft | 478 kts | 229° |
| 2026-04-21 02:33 | -7.86934 | -65.60510 | 35971 ft | 479 kts | 229° |
| 2026-04-21 02:34 | -7.91164 | -65.65699 | 35968 ft | 479 kts | 229° |
| 2026-04-21 02:34 | -7.95390 | -65.70886 | 35970 ft | 479 kts | 229° |
| 2026-04-21 02:35 | -7.99619 | -65.76077 | 35975 ft | 478 kts | 230° |
| 2026-04-21 02:35 | -8.03829 | -65.81248 | 35971 ft | 478 kts | 230° |
| 2026-04-21 02:36 | -8.08062 | -65.86448 | 35973 ft | 478 kts | 230° |
| 2026-04-21 02:36 | -8.12261 | -65.91609 | 35971 ft | 478 kts | 230° |
| 2026-04-21 02:37 | -8.16475 | -65.96790 | 35968 ft | 477 kts | 230° |
| 2026-04-21 02:37 | -8.20619 | -66.01886 | 35973 ft | 477 kts | 230° |
| 2026-04-21 02:38 | -8.24827 | -66.07063 | 35974 ft | 477 kts | 230° |
| 2026-04-21 02:38 | -8.29043 | -66.12253 | 35973 ft | 477 kts | 230° |
| 2026-04-21 02:39 | -8.33254 | -66.17438 | 35971 ft | 477 kts | 230° |
| 2026-04-21 02:39 | -8.37438 | -66.22590 | 35972 ft | 477 kts | 230° |
| 2026-04-21 02:40 | -8.41648 | -66.27778 | 35971 ft | 477 kts | 230° |
| 2026-04-21 02:40 | -8.45859 | -66.32969 | 35974 ft | 477 kts | 230° |
| 2026-04-21 02:41 | -8.50066 | -66.38157 | 35974 ft | 477 kts | 230° |
| 2026-04-21 02:41 | -8.54272 | -66.43345 | 35973 ft | 477 kts | 230° |
| 2026-04-21 02:42 | -8.58489 | -66.48548 | 35771 ft | 481 kts | 230° |
| 2026-04-21 02:42 | -8.60622 | -66.51181 | 35231 ft | 484 kts | 230° |
| 2026-04-21 02:42 | -8.62752 | -66.53810 | 34652 ft | 484 kts | 230° |
| 2026-04-21 02:42 | -8.64856 | -66.56408 | 34058 ft | 485 kts | 230° |
| 2026-04-21 02:43 | -8.66997 | -66.59053 | 33336 ft | 487 kts | 230° |
| 2026-04-21 02:43 | -8.69144 | -66.61707 | 32663 ft | 488 kts | 230° |
| 2026-04-21 02:43 | -8.71318 | -66.64394 | 32122 ft | 485 kts | 230° |
| 2026-04-21 02:43 | -8.73445 | -66.67023 | 31648 ft | 482 kts | 230° |
| 2026-04-21 02:44 | -8.75531 | -66.69601 | 31189 ft | 478 kts | 230° |
| 2026-04-21 02:44 | -8.77628 | -66.72195 | 30719 ft | 475 kts | 230° |
| 2026-04-21 02:44 | -8.79741 | -66.74808 | 30246 ft | 472 kts | 230° |
| 2026-04-21 02:44 | -8.81785 | -66.77336 | 29731 ft | 469 kts | 230° |
| 2026-04-21 02:45 | -8.83843 | -66.79881 | 29217 ft | 465 kts | 230° |
| 2026-04-21 02:45 | -8.85877 | -66.82399 | 28722 ft | 461 kts | 230° |
| 2026-04-21 02:45 | -8.87900 | -66.84903 | 28233 ft | 457 kts | 230° |
| 2026-04-21 02:45 | -8.89903 | -66.87381 | 27768 ft | 453 kts | 230° |
| 2026-04-21 02:46 | -8.91888 | -66.89839 | 27299 ft | 449 kts | 230° |
| 2026-04-21 02:46 | -8.93857 | -66.92277 | 26837 ft | 446 kts | 230° |
| 2026-04-21 02:46 | -8.95807 | -66.94692 | 26388 ft | 442 kts | 230° |
| 2026-04-21 02:46 | -8.97747 | -66.97095 | 25922 ft | 439 kts | 230° |
| 2026-04-21 02:47 | -8.99673 | -66.99482 | 25449 ft | 437 kts | 230° |
| 2026-04-21 02:47 | -9.01516 | -67.01764 | 25001 ft | 434 kts | 230° |
| 2026-04-21 02:47 | -9.03420 | -67.04125 | 24534 ft | 432 kts | 230° |
| 2026-04-21 02:47 | -9.05317 | -67.06476 | 24080 ft | 430 kts | 230° |
| 2026-04-21 02:48 | -9.07203 | -67.08815 | 23613 ft | 428 kts | 230° |
| 2026-04-21 02:48 | -9.09080 | -67.11142 | 23089 ft | 426 kts | 230° |
| 2026-04-21 02:48 | -9.10943 | -67.13453 | 22613 ft | 422 kts | 230° |
| 2026-04-21 02:48 | -9.12792 | -67.15746 | 22149 ft | 419 kts | 230° |
| 2026-04-21 02:49 | -9.14624 | -67.18020 | 21706 ft | 415 kts | 230° |
| 2026-04-21 02:49 | -9.16440 | -67.20273 | 21245 ft | 411 kts | 230° |
| 2026-04-21 02:49 | -9.18239 | -67.22507 | 20812 ft | 408 kts | 230° |
| 2026-04-21 02:49 | -9.20023 | -67.24722 | 20375 ft | 405 kts | 230° |
| 2026-04-21 02:50 | -9.21795 | -67.26921 | 19927 ft | 402 kts | 230° |
| 2026-04-21 02:50 | -9.23554 | -67.29106 | 19487 ft | 400 kts | 230° |
| 2026-04-21 02:50 | -9.25305 | -67.31281 | 19044 ft | 397 kts | 230° |
| 2026-04-21 02:50 | -9.27046 | -67.33444 | 18596 ft | 395 kts | 230° |
| 2026-04-21 02:51 | -9.28778 | -67.35597 | 18155 ft | 393 kts | 230° |
| 2026-04-21 02:51 | -9.30501 | -67.37738 | 17676 ft | 390 kts | 230° |
| 2026-04-21 02:51 | -9.32208 | -67.39859 | 17222 ft | 387 kts | 230° |
| 2026-04-21 02:51 | -9.33899 | -67.41962 | 16799 ft | 384 kts | 230° |
| 2026-04-21 02:52 | -9.35575 | -67.44044 | 16376 ft | 380 kts | 231° |
| 2026-04-21 02:52 | -9.37241 | -67.46117 | 15939 ft | 377 kts | 231° |
| 2026-04-21 02:52 | -9.38867 | -67.48140 | 15540 ft | 374 kts | 231° |
| 2026-04-21 02:52 | -9.40527 | -67.50205 | 15125 ft | 372 kts | 231° |
| 2026-04-21 02:53 | -9.42155 | -67.52230 | 14695 ft | 370 kts | 231° |
| 2026-04-21 02:53 | -9.43770 | -67.54239 | 14283 ft | 367 kts | 231° |
| 2026-04-21 02:53 | -9.45359 | -67.56217 | 13867 ft | 366 kts | 231° |
| 2026-04-21 02:53 | -9.46981 | -67.58236 | 13409 ft | 364 kts | 231° |
| 2026-04-21 02:54 | -9.48567 | -67.60211 | 12985 ft | 361 kts | 231° |
| 2026-04-21 02:54 | -9.49615 | -67.61516 | 12710 ft | 359 kts | 231° |
| 2026-04-21 02:54 | -9.51181 | -67.63466 | 12288 ft | 356 kts | 231° |
| 2026-04-21 02:54 | -9.53256 | -67.66051 | 11762 ft | 351 kts | 231° |
| 2026-04-21 02:55 | -9.54273 | -67.67318 | 11563 ft | 347 kts | 231° |
| 2026-04-21 02:55 | -9.55766 | -67.69178 | 11464 ft | 335 kts | 231° |
| 2026-04-21 02:55 | -9.57693 | -67.71579 | 11022 ft | 331 kts | 231° |
| 2026-04-21 02:55 | -9.58680 | -67.72809 | 10760 ft | 331 kts | 232° |
| 2026-04-21 02:56 | -9.60128 | -67.74615 | 10406 ft | 329 kts | 232° |
| 2026-04-21 02:56 | -9.63002 | -67.78199 | 10101 ft | 330 kts | 232° |
| 2026-04-21 02:56 | -9.64440 | -67.79992 | 10064 ft | 327 kts | 232° |
| 2026-04-21 02:57 | -9.65872 | -67.81778 | 10067 ft | 326 kts | 232° |
| 2026-04-21 02:57 | -9.67304 | -67.83565 | 10063 ft | 327 kts | 232° |
| 2026-04-21 02:57 | -9.68680 | -67.85397 | 10063 ft | 326 kts | 237° |
| 2026-04-21 02:57 | -9.69917 | -67.87322 | 10069 ft | 325 kts | 239° |
| 2026-04-21 02:58 | -9.71081 | -67.89290 | 10068 ft | 325 kts | 240° |
| 2026-04-21 02:58 | -9.72224 | -67.91268 | 10065 ft | 325 kts | 240° |
| 2026-04-21 02:58 | -9.73363 | -67.93251 | 10064 ft | 325 kts | 240° |
| 2026-04-21 02:58 | -9.74484 | -67.95209 | 10064 ft | 325 kts | 240° |
| 2026-04-21 02:59 | -9.75631 | -67.97218 | 10071 ft | 326 kts | 240° |
| 2026-04-21 02:59 | -9.76753 | -67.99185 | 10068 ft | 326 kts | 240° |
| 2026-04-21 02:59 | -9.77846 | -68.01102 | 10066 ft | 326 kts | 240° |
| 2026-04-21 02:59 | -9.78978 | -68.03092 | 10068 ft | 326 kts | 241° |
| 2026-04-21 03:00 | -9.80111 | -68.05085 | 10067 ft | 326 kts | 241° |
| 2026-04-21 03:00 | -9.81247 | -68.07075 | 10067 ft | 326 kts | 240° |
| 2026-04-21 03:00 | -9.82402 | -68.09053 | 10069 ft | 326 kts | 240° |
| 2026-04-21 03:00 | -9.83564 | -68.11030 | 10069 ft | 327 kts | 240° |
| 2026-04-21 03:01 | -9.84731 | -68.13010 | 10059 ft | 327 kts | 240° |
| 2026-04-21 03:01 | -9.85894 | -68.14989 | 10058 ft | 327 kts | 241° |
| 2026-04-21 03:01 | -9.86641 | -68.17148 | 10052 ft | 325 kts | 264° |
| 2026-04-21 03:01 | -9.86746 | -68.19436 | 10067 ft | 325 kts | 269° |
| 2026-04-21 03:02 | -9.86807 | -68.21728 | 10062 ft | 326 kts | 269° |
| 2026-04-21 03:02 | -9.86587 | -68.24005 | 10048 ft | 326 kts | 289° |
| 2026-04-21 03:02 | -9.85386 | -68.25932 | 10063 ft | 327 kts | 317° |
| 2026-04-21 03:02 | -9.83424 | -68.27060 | 10070 ft | 329 kts | 345° |
| 2026-04-21 03:03 | -9.81152 | -68.27127 | 10076 ft | 332 kts | 12° |
| 2026-04-21 03:03 | -9.79074 | -68.26115 | 10075 ft | 335 kts | 38° |
| 2026-04-21 03:03 | -9.77509 | -68.24366 | 10065 ft | 338 kts | 58° |
| 2026-04-21 03:03 | -9.76682 | -68.22142 | 10065 ft | 340 kts | 81° |
| 2026-04-21 03:04 | -9.76712 | -68.19759 | 10071 ft | 340 kts | 101° |
| 2026-04-21 03:04 | -9.77278 | -68.17431 | 10068 ft | 340 kts | 105° |
| 2026-04-21 03:04 | -9.77925 | -68.15122 | 10063 ft | 341 kts | 106° |
| 2026-04-21 03:04 | -9.78574 | -68.12811 | 10060 ft | 341 kts | 105° |
| 2026-04-21 03:05 | -9.79197 | -68.10519 | 10047 ft | 329 kts | 105° |
| 2026-04-21 03:05 | -9.79773 | -68.08343 | 10044 ft | 309 kts | 105° |
| 2026-04-21 03:05 | -9.80307 | -68.06312 | 10041 ft | 288 kts | 105° |
| 2026-04-21 03:05 | -9.80995 | -68.04485 | 10039 ft | 268 kts | 126° |
| 2026-04-21 03:06 | -9.82297 | -68.03239 | 10069 ft | 256 kts | 152° |
| 2026-04-21 03:06 | -9.84007 | -68.02623 | 10098 ft | 272 kts | 174° |
| 2026-04-21 03:06 | -9.85954 | -68.02723 | 10088 ft | 292 kts | 197° |
| 2026-04-21 03:06 | -9.87782 | -68.03712 | 10077 ft | 308 kts | 224° |
| 2026-04-21 03:07 | -9.88982 | -68.05545 | 10078 ft | 322 kts | 253° |
| 2026-04-21 03:07 | -9.89163 | -68.07815 | 10074 ft | 328 kts | 280° |
| 2026-04-21 03:07 | -9.88579 | -68.10039 | 10066 ft | 326 kts | 287° |
| 2026-04-21 03:07 | -9.87953 | -68.12213 | 10048 ft | 313 kts | 285° |
| 2026-04-21 03:08 | -9.87410 | -68.14250 | 10041 ft | 294 kts | 284° |
| 2026-04-21 03:08 | -9.86896 | -68.16214 | 10052 ft | 285 kts | 289° |
| 2026-04-21 03:08 | -9.85851 | -68.17965 | 10073 ft | 303 kts | 315° |
| 2026-04-21 03:08 | -9.83987 | -68.19127 | 10074 ft | 323 kts | 342° |
| 2026-04-21 03:09 | -9.81755 | -68.19281 | 10072 ft | 331 kts | 10° |
| 2026-04-21 03:09 | -9.79718 | -68.18351 | 10048 ft | 317 kts | 39° |
| 2026-04-21 03:09 | -9.78448 | -68.16579 | 10030 ft | 305 kts | 70° |
| 2026-04-21 03:09 | -9.78218 | -68.14511 | 9791 ft | 301 kts | 99° |
| 2026-04-21 03:10 | -9.78709 | -68.12470 | 9380 ft | 297 kts | 105° |
| 2026-04-21 03:10 | -9.79255 | -68.10443 | 8823 ft | 298 kts | 105° |
| 2026-04-21 03:10 | -9.79774 | -68.08412 | 8349 ft | 297 kts | 101° |
| 2026-04-21 03:10 | -9.79750 | -68.06351 | 7859 ft | 294 kts | 73° |
| 2026-04-21 03:11 | -9.79089 | -68.04415 | 7460 ft | 289 kts | 67° |
| 2026-04-21 03:11 | -9.78003 | -68.02734 | 6975 ft | 285 kts | 38° |
| 2026-04-21 03:11 | -9.76253 | -68.01904 | 6533 ft | 278 kts | 5° |
| 2026-04-21 03:11 | -9.74380 | -68.02170 | 6114 ft | 275 kts | 332° |
| 2026-04-21 03:12 | -9.72989 | -68.03447 | 5831 ft | 272 kts | 299° |
| 2026-04-21 03:12 | -9.72538 | -68.05273 | 5555 ft | 271 kts | 266° |
| 2026-04-21 03:12 | -9.73142 | -68.07068 | 5269 ft | 272 kts | 239° |
| 2026-04-21 03:12 | -9.74444 | -68.08444 | 5011 ft | 275 kts | 210° |
| 2026-04-21 03:13 | -9.76261 | -68.09046 | 4812 ft | 276 kts | 194° |
| 2026-04-21 03:13 | -9.78144 | -68.09488 | 4568 ft | 278 kts | 194° |
| 2026-04-21 03:13 | -9.80028 | -68.09928 | 4319 ft | 277 kts | 194° |
| 2026-04-21 03:13 | -9.81901 | -68.10377 | 4067 ft | 276 kts | 194° |
| 2026-04-21 03:14 | -9.83769 | -68.10832 | 3828 ft | 276 kts | 194° |
| 2026-04-21 03:14 | -9.85630 | -68.11290 | 3587 ft | 275 kts | 194° |
| 2026-04-21 03:14 | -9.87480 | -68.11747 | 3474 ft | 270 kts | 194° |
| 2026-04-21 03:14 | -9.89308 | -68.12011 | 3445 ft | 266 kts | 174° |
| 2026-04-21 03:15 | -9.91009 | -68.11385 | 3447 ft | 260 kts | 144° |
| 2026-04-21 03:15 | -9.92295 | -68.10140 | 3451 ft | 253 kts | 128° |
| 2026-04-21 03:15 | -9.93352 | -68.08736 | 3447 ft | 247 kts | 125° |
| 2026-04-21 03:15 | -9.94344 | -68.07377 | 3457 ft | 232 kts | 126° |
| 2026-04-21 03:16 | -9.95274 | -68.06113 | 3426 ft | 216 kts | 125° |
| 2026-04-21 03:16 | -9.95934 | -68.04830 | 3383 ft | 197 kts | 95° |
| 2026-04-21 03:16 | -9.95819 | -68.03512 | 3417 ft | 186 kts | 71° |
| 2026-04-21 03:16 | -9.95213 | -68.02371 | 3323 ft | 185 kts | 50° |
| 2026-04-21 03:17 | -9.94465 | -68.01289 | 3087 ft | 188 kts | 55° |
| 2026-04-21 03:17 | -9.93774 | -68.00185 | 2843 ft | 184 kts | 55° |
| 2026-04-21 03:17 | -9.93093 | -67.99109 | 2619 ft | 178 kts | 55° |
| 2026-04-21 03:17 | -9.92438 | -67.98079 | 2401 ft | 168 kts | 54° |
| 2026-04-21 03:18 | -9.91841 | -67.97140 | 2217 ft | 151 kts | 54° |
| 2026-04-21 03:18 | -9.91279 | -67.96260 | 2001 ft | 145 kts | 54° |
| 2026-04-21 03:18 | -9.90730 | -67.95399 | 1816 ft | 147 kts | 54° |
| 2026-04-21 03:18 | -9.90178 | -67.94531 | 1629 ft | 146 kts | 54° |
| 2026-04-21 03:19 | -9.89628 | -67.93668 | 1435 ft | 146 kts | 55° |
| 2026-04-21 03:19 | -9.89072 | -67.92796 | 1265 ft | 149 kts | 56° |
| 2026-04-21 03:19 | -9.88522 | -67.91905 | 1094 ft | 149 kts | 57° |
| 2026-04-21 03:19 | -9.87968 | -67.91040 | 890 ft | 144 kts | 55° |
| 2026-04-21 03:20 | -9.87426 | -67.90208 | 673 ft | 144 kts | 55° |
| 2026-04-21 03:20 | -9.86935 | -67.89444 | 639 ft | 101 kts | 57° |
| 2026-04-21 03:20 | -9.86669 | -67.89026 | 613 ft | 40 kts | 57° |
| 2026-04-21 03:20 | -9.86552 | -67.88842 | 609 ft | 21 kts | 57° |
| 2026-04-21 03:21 | -9.86483 | -67.88735 | 616 ft | 18 kts | 57° |
| 2026-04-21 03:21 | -9.86419 | -67.88647 | 604 ft | 11 kts | 37° |
| 2026-04-21 03:21 | -9.86369 | -67.88623 | 611 ft | 5 kts | 43° |
| 2026-04-21 03:21 | -9.86371 | -67.88594 | 610 ft | 4 kts | 133° |
| 2026-04-21 03:22 | -9.86398 | -67.88595 | 613 ft | 4 kts | 221° |
| 2026-04-21 03:22 | -9.86414 | -67.88625 | 618 ft | 6 kts | 237° |
| 2026-04-21 03:22 | -9.86446 | -67.88675 | 604 ft | 11 kts | 237° |
| 2026-04-21 03:22 | -9.86493 | -67.88748 | 605 ft | 14 kts | 237° |
| 2026-04-21 03:23 | -9.86549 | -67.88836 | 611 ft | 16 kts | 237° |
| 2026-04-21 03:23 | -9.86614 | -67.88938 | 622 ft | 19 kts | 237° |
| 2026-04-21 03:23 | -9.86687 | -67.89051 | 616 ft | 19 kts | 237° |
| 2026-04-21 03:23 | -9.86756 | -67.89160 | 620 ft | 17 kts | 238° |
| 2026-04-21 03:24 | -9.86780 | -67.89256 | 626 ft | 13 kts | 278° |
| 2026-04-21 03:24 | -9.86762 | -67.89345 | 628 ft | 13 kts | 282° |
| 2026-04-21 03:24 | -9.86744 | -67.89431 | 625 ft | 12 kts | 282° |
| 2026-04-21 03:24 | -9.86729 | -67.89500 | 624 ft | 10 kts | 284° |
| 2026-04-21 03:25 | -9.86714 | -67.89559 | 627 ft | 7 kts | 277° |
| 2026-04-21 03:25 | -9.86733 | -67.89602 | 627 ft | 7 kts | 236° |
| 2026-04-21 03:25 | -9.86746 | -67.89645 | 628 ft | 7 kts | 285° |
| 2026-04-21 03:25 | -9.86716 | -67.89673 | 625 ft | 2 kts | 326° |
| 2026-04-21 03:26 | -9.86707 | -67.89678 | 629 ft | 0 kts | 326° |